createdAt,value
2023-04-20T00:02:21.793Z,7.71
2023-04-20T00:04:54.606Z,7.75
2023-04-20T00:07:27.514Z,7.75
2023-04-20T00:10:01.870Z,7.76
2023-04-20T00:12:34.483Z,7.75
2023-04-20T00:15:07.901Z,7.75
2023-04-20T00:17:40.653Z,7.75
2023-04-20T00:20:15.402Z,7.77
2023-04-20T00:22:48.706Z,7.77
2023-04-20T00:25:21.251Z,7.80
2023-04-20T00:27:53.592Z,7.80
2023-04-20T00:30:25.882Z,7.82
2023-04-20T00:32:58.281Z,7.84
2023-04-20T00:35:30.780Z,7.86
2023-04-20T00:38:02.908Z,7.85
2023-04-20T00:40:35.554Z,7.85
2023-04-20T00:43:16.252Z,7.79
2023-04-20T00:45:52.074Z,7.76
2023-04-20T00:48:24.876Z,7.73
2023-04-20T00:50:57.824Z,7.74
2023-04-20T00:53:29.912Z,7.75
2023-04-20T00:56:02.324Z,7.74
2023-04-20T00:58:37.148Z,7.75
2023-04-20T01:01:10.069Z,7.72
2023-04-20T01:03:43.254Z,7.71
2023-04-20T01:06:16.515Z,7.73
2023-04-20T01:08:53.267Z,7.75
2023-04-20T01:11:25.745Z,7.75
2023-04-20T01:13:57.923Z,7.74
2023-04-20T01:16:30.154Z,7.73
2023-04-20T01:19:02.365Z,7.73
2023-04-20T01:21:38.731Z,7.73
2023-04-20T01:24:11.555Z,7.76
2023-04-20T01:26:43.950Z,7.76
2023-04-20T01:29:16.282Z,7.77
2023-04-20T01:31:49.910Z,7.77
2023-04-20T01:34:24.415Z,7.76
2023-04-20T01:36:59.714Z,7.75
2023-04-20T01:39:31.898Z,7.77
2023-04-20T01:42:08.070Z,7.77
2023-04-20T01:44:41.744Z,7.76
2023-04-20T01:47:13.990Z,7.79
2023-04-20T01:49:46.349Z,7.77
2023-04-20T01:52:18.583Z,7.79
2023-04-20T01:54:50.994Z,7.79
2023-04-20T01:57:23.283Z,7.80
2023-04-20T01:59:56.405Z,7.82
2023-04-20T02:02:29.838Z,7.85
2023-04-20T02:05:02.213Z,7.85
2023-04-20T02:07:34.258Z,7.86
2023-04-20T02:10:09.294Z,7.87
2023-04-20T02:12:42.106Z,7.87
2023-04-20T02:15:17.147Z,7.82
2023-04-20T02:17:52.346Z,7.81
2023-04-20T02:20:25.117Z,7.81
2023-04-20T02:22:57.458Z,7.80
2023-04-20T02:25:29.865Z,7.82
2023-04-20T02:28:02.002Z,7.87
2023-04-20T02:30:34.477Z,7.86
2023-04-20T02:33:06.902Z,7.84
2023-04-20T02:35:42.038Z,7.85
2023-04-20T02:38:16.755Z,7.87
2023-04-20T02:40:48.841Z,7.91
2023-04-20T02:43:21.496Z,7.93
2023-04-20T02:45:54.010Z,7.90
2023-04-20T02:48:27.356Z,7.90
2023-04-20T02:50:59.691Z,7.90
2023-04-20T02:53:37.858Z,7.89
2023-04-20T02:56:29.432Z,7.86
2023-04-20T02:59:06.830Z,7.85
2023-04-20T03:01:59.248Z,7.86
2023-04-20T03:04:34.009Z,7.89
2023-04-20T03:07:24.278Z,7.92
2023-04-20T03:09:57.314Z,7.92
2023-04-20T03:12:48.344Z,7.94
2023-04-20T03:15:35.752Z,7.96
2023-04-20T03:18:12.877Z,7.97
2023-04-20T03:20:45.392Z,7.98
2023-04-20T03:23:17.493Z,7.96
2023-04-20T03:25:50.267Z,7.96
2023-04-20T03:28:36.347Z,7.94
2023-04-20T03:31:08.676Z,7.93
2023-04-20T03:33:40.818Z,7.97
2023-04-20T03:36:13.331Z,7.96
2023-04-20T03:38:45.460Z,7.98
2023-04-20T03:41:17.667Z,7.97
2023-04-20T03:43:49.775Z,7.93
2023-04-20T03:46:23.207Z,7.90
2023-04-20T03:48:55.691Z,7.87
2023-04-20T03:51:28.740Z,7.85
2023-04-20T03:54:00.948Z,7.87
2023-04-20T03:56:33.777Z,7.88
2023-04-20T03:59:09.088Z,7.89
2023-04-20T04:01:42.406Z,7.90
2023-04-20T04:04:14.902Z,7.92
2023-04-20T04:06:47.118Z,7.91
2023-04-20T04:09:19.381Z,7.92
2023-04-20T04:11:51.535Z,7.92
2023-04-20T04:14:24.211Z,7.94
2023-04-20T04:16:56.426Z,7.92
2023-04-20T04:19:28.562Z,7.92
2023-04-20T04:22:00.614Z,7.93
2023-04-20T04:24:33.829Z,7.94
2023-04-20T04:27:34.972Z,7.96
2023-04-20T04:30:54.299Z,7.95
2023-04-20T04:33:46.550Z,7.95
2023-04-20T04:36:24.281Z,7.93
2023-04-20T04:38:56.796Z,7.93
2023-04-20T04:41:29.269Z,7.93
2023-04-20T04:44:11.216Z,7.92
2023-04-20T04:46:47.847Z,7.94
2023-04-20T04:49:20.783Z,7.96
2023-04-20T04:51:53.230Z,7.96
2023-04-20T04:54:25.440Z,7.97
2023-04-20T04:56:58.334Z,7.96
2023-04-20T04:59:30.596Z,7.96
2023-04-20T05:02:02.783Z,7.98
2023-04-20T05:04:36.483Z,7.99
2023-04-20T05:07:11.090Z,8.00
2023-04-20T05:09:43.408Z,8.01
2023-04-20T05:12:15.694Z,8.03
2023-04-20T05:14:47.932Z,8.03
2023-04-20T05:17:22.258Z,8.02
2023-04-20T05:23:04.461Z,8.09
2023-04-20T05:25:36.709Z,8.06
2023-04-20T05:28:09.199Z,8.03
2023-04-20T05:30:41.375Z,8.01
2023-04-20T05:33:13.505Z,8.01
2023-04-20T05:36:21.742Z,8.02
2023-04-20T05:38:56.686Z,8.05
2023-04-20T05:42:14.393Z,8.09
2023-04-20T05:48:18.732Z,8.24
2023-04-20T05:50:51.095Z,8.26
2023-04-20T05:53:23.316Z,8.28
2023-04-20T05:55:55.412Z,8.30
2023-04-20T05:58:28.602Z,8.32
2023-04-20T06:01:02.510Z,8.33
2023-04-20T06:03:34.860Z,8.36
2023-04-20T06:06:08.052Z,8.40
2023-04-20T06:08:40.954Z,8.42
2023-04-20T06:11:13.109Z,8.43
2023-04-20T06:13:45.381Z,8.45
2023-04-20T06:16:20.902Z,8.50
2023-04-20T06:18:54.291Z,8.54
2023-04-20T06:21:27.406Z,8.57
2023-04-20T06:23:59.636Z,8.62
2023-04-20T06:26:31.697Z,8.63
2023-04-20T06:29:04.849Z,8.61
2023-04-20T06:31:37.276Z,8.63
2023-04-20T06:34:09.549Z,8.67
2023-04-20T06:36:44.879Z,8.74
2023-04-20T06:39:19.641Z,8.83
2023-04-20T06:41:51.994Z,8.90
2023-04-20T06:44:27.551Z,9.01
2023-04-20T06:47:02.132Z,9.11
2023-04-20T06:49:34.704Z,9.19
2023-04-20T06:52:07.262Z,9.29
2023-04-20T06:54:39.436Z,9.39
2023-04-20T06:57:11.596Z,9.45
2023-04-20T06:59:43.711Z,9.47
2023-04-20T07:02:16.076Z,9.52
2023-04-20T07:04:50.797Z,9.55
2023-04-20T07:07:24.317Z,9.57
2023-04-20T07:09:56.431Z,9.62
2023-04-20T07:12:28.588Z,9.67
2023-04-20T07:15:00.851Z,9.73
2023-04-20T07:17:33.348Z,9.82
2023-04-20T07:20:08.411Z,9.98
2023-04-20T07:22:40.989Z,10.12
2023-04-20T07:25:13.133Z,10.20
2023-04-20T07:27:45.331Z,10.27
2023-04-20T07:30:17.961Z,10.32
2023-04-20T07:32:50.360Z,10.38
2023-04-20T07:35:23.085Z,10.41
2023-04-20T07:37:55.170Z,10.43
2023-04-20T07:40:27.585Z,10.47
2023-04-20T07:42:59.994Z,10.54
2023-04-20T07:45:32.162Z,10.59
2023-04-20T07:48:05.720Z,10.67
2023-04-20T07:50:37.964Z,10.77
2023-04-20T07:53:10.392Z,10.89
2023-04-20T07:55:42.526Z,11.02
2023-04-20T07:58:16.401Z,11.15
2023-04-20T08:00:49.858Z,11.29
2023-04-20T08:03:22.212Z,11.43
2023-04-20T08:05:54.466Z,11.58
2023-04-20T08:08:27.599Z,11.76
2023-04-20T08:11:00.672Z,11.89
2023-04-20T08:13:32.681Z,12.01
2023-04-20T08:16:04.858Z,12.16
2023-04-20T08:18:36.928Z,12.36
2023-04-20T08:21:09.163Z,12.54
2023-04-20T08:23:41.534Z,12.68
2023-04-20T08:26:17.826Z,12.70
2023-04-20T08:28:50.338Z,12.66
2023-04-20T08:31:23.021Z,12.69
2023-04-20T08:33:55.259Z,12.82
2023-04-20T08:36:28.177Z,12.90
2023-04-20T08:39:10.154Z,12.94
2023-04-20T08:41:42.551Z,12.97
2023-04-20T08:44:15.655Z,12.93
2023-04-20T08:46:50.406Z,12.91
2023-04-20T08:49:28.388Z,12.92
2023-04-20T08:52:01.127Z,12.92
2023-04-20T08:54:35.119Z,12.97
2023-04-20T08:57:07.686Z,13.14
2023-04-20T08:59:41.835Z,13.40
2023-04-20T09:02:15.288Z,13.65
2023-04-20T09:04:49.239Z,13.93
2023-04-20T09:07:22.777Z,14.07
2023-04-20T09:09:58.752Z,14.11
2023-04-20T09:12:41.516Z,14.11
2023-04-20T09:15:25.128Z,14.15
2023-04-20T09:17:57.826Z,14.17
2023-04-20T09:20:36.716Z,14.15
2023-04-20T09:23:16.215Z,14.14
2023-04-20T09:25:53.196Z,14.14
2023-04-20T09:28:25.450Z,14.13
2023-04-20T09:30:57.548Z,14.10
2023-04-20T09:33:32.841Z,14.07
2023-04-20T09:36:08.010Z,14.00
2023-04-20T09:38:40.118Z,13.97
2023-04-20T09:41:12.578Z,13.94
2023-04-20T09:43:45.663Z,13.97
2023-04-20T09:46:17.870Z,14.02
2023-04-20T09:48:50.587Z,14.12
2023-04-20T09:51:23.806Z,14.34
2023-04-20T09:53:56.457Z,14.51
2023-04-20T09:56:29.108Z,14.46
2023-04-20T09:59:02.156Z,14.44
2023-04-20T10:01:36.611Z,14.42
2023-04-20T10:04:14.319Z,14.40
2023-04-20T10:06:58.031Z,14.34
2023-04-20T10:09:31.247Z,14.42
2023-04-20T10:12:12.353Z,14.48
2023-04-20T10:14:45.724Z,14.57
2023-04-20T10:17:18.295Z,14.67
2023-04-20T10:19:51.702Z,14.79
2023-04-20T10:26:51.677Z,14.94
2023-04-20T10:30:02.236Z,15.00
2023-04-20T10:32:34.501Z,15.06
2023-04-20T10:38:39.903Z,15.73
2023-04-20T10:41:13.147Z,16.10
2023-04-20T10:43:45.428Z,16.26
2023-04-20T10:46:25.517Z,16.27
2023-04-20T10:48:59.117Z,16.09
2023-04-20T10:51:38.101Z,15.87
2023-04-20T10:58:43.181Z,15.26
2023-04-20T11:02:19.221Z,15.10
2023-04-20T11:05:01.207Z,14.88
2023-04-20T11:08:18.877Z,14.72
2023-04-20T11:10:51.030Z,14.60
2023-04-20T11:13:25.829Z,14.53
2023-04-20T11:20:30.380Z,14.72
2023-04-20T11:23:05.102Z,14.89
2023-04-20T11:30:21.475Z,15.33
2023-04-20T11:40:40.009Z,15.50
2023-04-20T11:43:19.050Z,15.53
2023-04-20T11:54:20.208Z,16.84
2023-04-20T11:56:52.645Z,16.88
2023-04-20T11:59:30.892Z,16.85
2023-04-20T12:02:05.759Z,16.86
2023-04-20T12:04:45.561Z,16.99
2023-04-20T12:07:17.801Z,17.00
2023-04-20T12:09:57.965Z,16.94
2023-04-20T12:12:30.208Z,16.67
2023-04-20T12:23:55.118Z,15.92
2023-04-20T12:31:01.061Z,16.58
2023-04-20T12:33:33.259Z,16.69
2023-04-20T12:36:05.547Z,16.70
2023-04-20T12:38:43.942Z,16.69
2023-04-20T12:41:17.686Z,16.85
2023-04-20T12:47:44.364Z,17.09
2023-04-20T12:50:16.750Z,17.16
2023-04-20T12:57:13.540Z,17.14
2023-04-20T12:59:45.604Z,17.13
2023-04-20T13:02:18.369Z,17.21
2023-04-20T13:04:56.995Z,17.35
2023-04-20T13:07:29.199Z,17.48
2023-04-20T13:10:03.461Z,17.46
2023-04-20T13:13:09.821Z,17.43
2023-04-20T13:15:48.329Z,17.54
2023-04-20T13:18:20.817Z,17.68
2023-04-20T13:21:20.662Z,17.96
2023-04-20T13:28:25.750Z,18.00
2023-04-20T13:30:58.348Z,17.75
2023-04-20T13:33:37.084Z,17.74
2023-04-20T13:41:46.569Z,17.75
2023-04-20T13:44:25.156Z,17.86
2023-04-20T13:46:57.250Z,17.92
2023-04-20T13:49:29.413Z,17.95
2023-04-20T13:52:07.410Z,17.93
2023-04-20T13:54:39.674Z,17.88
2023-04-20T13:57:12.131Z,17.83
2023-04-20T13:59:51.043Z,17.77
2023-04-20T14:02:24.988Z,17.60
2023-04-20T14:09:34.313Z,17.32
2023-04-20T14:15:59.808Z,17.18
2023-04-20T14:18:32.012Z,17.22
2023-04-20T14:21:04.174Z,17.26
2023-04-20T14:28:16.659Z,17.37
2023-04-20T14:35:09.306Z,17.51
2023-04-20T14:38:03.814Z,17.65
2023-04-20T14:40:36.023Z,17.75
2023-04-20T14:47:06.226Z,17.89
2023-04-20T14:49:50.023Z,17.87
2023-04-20T14:52:28.180Z,17.90
2023-04-20T14:55:00.557Z,18.05
2023-04-20T15:02:07.587Z,18.07
2023-04-20T15:04:46.516Z,17.95
2023-04-20T15:07:19.346Z,17.86
2023-04-20T15:14:25.668Z,17.55
2023-04-20T15:17:00.497Z,17.47
2023-04-20T15:19:32.670Z,17.38
2023-04-20T15:22:04.868Z,17.34
2023-04-20T15:24:36.962Z,17.30
2023-04-20T15:27:09.221Z,17.25
2023-04-20T15:29:41.349Z,17.24
2023-04-20T15:32:13.643Z,17.17
2023-04-20T15:34:45.945Z,17.08
2023-04-20T15:37:18.010Z,17.04
2023-04-20T15:39:50.147Z,17.00
2023-04-20T15:42:22.582Z,16.96
2023-04-20T15:44:54.686Z,16.94
2023-04-20T15:47:26.840Z,16.93
2023-04-20T15:50:01.560Z,16.87
2023-04-20T15:52:34.351Z,16.78
2023-04-20T15:55:08.958Z,16.73
2023-04-20T15:57:42.534Z,16.67
2023-04-20T16:00:17.074Z,16.64
2023-04-20T16:02:49.501Z,16.61
2023-04-20T16:05:22.216Z,16.56
2023-04-20T16:07:54.748Z,16.51
2023-04-20T16:10:28.227Z,16.47
2023-04-20T16:13:00.475Z,16.42
2023-04-20T16:15:33.814Z,16.33
2023-04-20T16:18:06.409Z,16.28
2023-04-20T16:20:40.701Z,16.24
2023-04-20T16:23:13.640Z,16.17
2023-04-20T16:25:46.062Z,16.09
2023-04-20T16:28:18.252Z,16.04
2023-04-20T16:30:50.601Z,15.99
2023-04-20T16:33:23.314Z,15.95
2023-04-20T16:35:55.600Z,15.92
2023-04-20T16:38:27.852Z,15.86
2023-04-20T16:41:00.137Z,15.82
2023-04-20T16:43:32.255Z,15.78
2023-04-20T16:46:04.914Z,15.75
2023-04-20T16:48:37.168Z,15.69
2023-04-20T16:51:09.913Z,15.64
2023-04-20T16:53:42.072Z,15.59
2023-04-20T16:56:14.259Z,15.55
2023-04-20T16:58:47.134Z,15.51
2023-04-20T17:01:19.346Z,15.47
2023-04-20T17:03:51.945Z,15.46
2023-04-20T17:06:24.180Z,15.46
2023-04-20T17:09:01.452Z,15.41
2023-04-20T17:11:35.959Z,15.32
2023-04-20T17:14:08.326Z,15.27
2023-04-20T17:16:40.737Z,15.23
2023-04-20T17:19:12.836Z,15.18
2023-04-20T17:21:45.752Z,15.14
2023-04-20T17:24:21.910Z,15.09
2023-04-20T17:26:54.343Z,15.06
2023-04-20T17:29:26.904Z,15.03
2023-04-20T17:31:59.487Z,15.00
2023-04-20T17:34:31.727Z,14.95
2023-04-20T17:37:03.936Z,14.89
2023-04-20T17:39:36.053Z,14.83
2023-04-20T17:42:08.526Z,14.75
2023-04-20T17:44:40.615Z,14.67
2023-04-20T17:47:15.025Z,14.58
2023-04-20T17:49:47.173Z,14.47
2023-04-20T17:52:25.354Z,14.36
2023-04-20T17:55:00.056Z,14.25
2023-04-20T17:57:32.427Z,14.15
2023-04-20T18:00:05.400Z,14.05
2023-04-20T18:02:44.301Z,13.93
2023-04-20T18:05:17.117Z,13.82
2023-04-20T18:07:49.491Z,13.70
2023-04-20T18:10:21.792Z,13.58
2023-04-20T18:12:54.531Z,13.45
2023-04-20T18:15:28.205Z,13.33
2023-04-20T18:18:03.409Z,13.18
2023-04-20T18:20:35.673Z,13.05
2023-04-20T18:23:08.110Z,12.91
2023-04-20T18:25:40.814Z,12.78
2023-04-20T18:28:12.986Z,12.64
2023-04-20T18:30:45.340Z,12.52
2023-04-20T18:33:17.452Z,12.41
2023-04-20T18:35:50.119Z,12.33
2023-04-20T18:38:22.334Z,12.25
2023-04-20T18:41:03.361Z,12.17
2023-04-20T18:43:37.151Z,12.08
2023-04-20T18:46:09.514Z,11.95
2023-04-20T18:49:03.796Z,11.83
2023-04-20T18:51:36.435Z,11.70
2023-04-20T18:54:08.885Z,11.58
2023-04-20T19:01:13.624Z,11.29
2023-04-20T19:03:52.875Z,11.18
2023-04-20T19:06:26.166Z,11.09
2023-04-20T19:09:31.187Z,10.99
2023-04-20T19:12:09.775Z,10.87
2023-04-20T19:14:42.320Z,10.78
2023-04-20T19:21:44.034Z,10.53
2023-04-20T19:28:40.706Z,10.28
2023-04-20T19:39:29.136Z,10.02
2023-04-20T19:42:26.451Z,9.97
2023-04-20T19:49:37.864Z,9.83
2023-04-20T19:56:42.629Z,9.70
2023-04-20T19:59:14.851Z,9.64
2023-04-20T20:01:48.337Z,9.60
2023-04-20T20:05:08.342Z,9.55
2023-04-20T20:07:47.574Z,9.48
2023-04-20T20:10:19.847Z,9.42
2023-04-20T20:12:58.650Z,9.36
2023-04-20T20:15:31.022Z,9.30
2023-04-20T20:18:10.693Z,9.23
2023-04-20T20:20:43.434Z,9.17
2023-04-20T20:23:15.956Z,9.12
2023-04-20T20:39:41.141Z,8.84
2023-04-20T20:46:50.085Z,8.65
2023-04-20T20:49:22.406Z,8.58
2023-04-20T20:56:25.872Z,8.45
2023-04-20T20:58:58.062Z,8.40
2023-04-20T21:01:37.736Z,8.35
2023-04-20T21:04:10.065Z,8.30
2023-04-20T21:06:48.644Z,8.25
2023-04-20T21:09:22.125Z,8.21
2023-04-20T21:12:01.085Z,8.13
2023-04-20T21:18:15.763Z,8.03
2023-04-20T21:20:49.523Z,7.98
2023-04-20T21:23:21.789Z,7.93
2023-04-20T21:30:28.290Z,7.77
2023-04-20T21:37:32.793Z,7.69
2023-04-20T21:40:37.231Z,7.66
2023-04-20T21:46:24.608Z,7.59
2023-04-20T21:48:57.030Z,7.54
2023-04-20T21:56:42.346Z,7.41
2023-04-20T21:59:15.569Z,7.35
2023-04-20T22:01:47.913Z,7.32
2023-04-20T22:05:01.052Z,7.29
2023-04-20T22:07:34.160Z,7.24
2023-04-20T22:10:10.975Z,7.19
2023-04-20T22:18:00.931Z,7.13
2023-04-20T22:20:40.695Z,7.09
2023-04-20T22:23:12.929Z,7.05
2023-04-20T22:34:57.180Z,6.95
2023-04-20T22:37:29.455Z,6.93
2023-04-20T22:40:01.675Z,6.93
2023-04-20T22:42:41.454Z,6.94
2023-04-20T22:45:14.363Z,6.96
2023-04-20T22:51:06.956Z,6.99
2023-04-20T22:53:54.618Z,7.00
2023-04-20T22:56:33.550Z,7.02
2023-04-20T22:59:05.853Z,7.06
2023-04-20T23:01:38.165Z,7.09
2023-04-20T23:04:55.025Z,7.11
2023-04-20T23:07:27.635Z,7.15
2023-04-20T23:10:01.506Z,7.20
2023-04-20T23:12:40.630Z,7.24
2023-04-20T23:19:46.010Z,7.34
2023-04-20T23:22:18.489Z,7.35
2023-04-20T23:24:50.925Z,7.37
2023-04-20T23:27:23.123Z,7.40
2023-04-20T23:33:49.326Z,7.49
2023-04-20T23:36:22.023Z,7.51
2023-04-20T23:43:26.933Z,7.54
2023-04-20T23:54:54.335Z,7.54
2023-04-20T23:57:26.579Z,7.54
2023-04-20T23:59:59.353Z,7.55
